createdAt,value
2023-02-23T00:01:42.050Z,7.80
2023-02-23T00:04:09.152Z,7.80
2023-02-23T00:06:37.296Z,7.80
2023-02-23T00:09:24.272Z,7.80
2023-02-23T00:11:56.184Z,7.90
2023-02-23T00:14:27.387Z,7.90
2023-02-23T00:16:55.489Z,7.80
2023-02-23T00:19:24.515Z,7.80
2023-02-23T00:21:52.296Z,7.80
2023-02-23T00:24:22.998Z,7.80
2023-02-23T00:26:51.302Z,7.80
2023-02-23T00:29:22.984Z,7.80
2023-02-23T00:31:51.440Z,7.80
2023-02-23T00:34:23.496Z,7.80
2023-02-23T00:36:54.106Z,7.80
2023-02-23T00:39:29.240Z,7.90
2023-02-23T00:41:56.891Z,7.90
2023-02-23T00:44:24.248Z,7.90
2023-02-23T00:46:52.482Z,7.90
2023-02-23T00:49:21.753Z,7.90
2023-02-23T00:51:48.531Z,7.90
2023-02-23T00:54:16.338Z,7.90
2023-02-23T00:56:43.312Z,7.90
2023-02-23T00:59:10.945Z,8.00
2023-02-23T01:01:38.555Z,8.00
2023-02-23T01:04:07.074Z,8.00
2023-02-23T01:06:34.692Z,8.00
2023-02-23T01:09:05.228Z,8.00
2023-02-23T01:11:31.887Z,8.00
2023-02-23T01:14:00.646Z,8.00
2023-02-23T01:16:31.590Z,8.00
2023-02-23T01:19:01.252Z,8.00
2023-02-23T01:21:33.509Z,8.00
2023-02-23T01:24:02.180Z,8.00
2023-02-23T01:26:31.690Z,8.00
2023-02-23T01:29:01.040Z,8.00
2023-02-23T01:31:29.473Z,8.00
2023-02-23T01:33:58.607Z,8.00
2023-02-23T01:36:25.699Z,8.00
2023-02-23T01:38:56.796Z,8.10
2023-02-23T01:41:24.820Z,8.00
2023-02-23T01:44:31.290Z,8.00
2023-02-23T01:46:58.273Z,8.00
2023-02-23T01:49:29.339Z,8.00
2023-02-23T01:52:12.920Z,8.00
2023-02-23T01:54:50.327Z,8.00
2023-02-23T01:57:19.023Z,8.00
2023-02-23T01:59:48.898Z,8.00
2023-02-23T02:02:18.396Z,8.00
2023-02-23T02:04:45.294Z,8.00
2023-02-23T02:07:18.078Z,8.00
2023-02-23T02:10:05.481Z,8.00
2023-02-23T02:12:32.118Z,8.00
2023-02-23T02:15:00.654Z,8.00
2023-02-23T02:17:57.948Z,8.00
2023-02-23T02:21:04.225Z,8.00
2023-02-23T02:23:36.993Z,8.10
2023-02-23T02:26:20.753Z,8.00
2023-02-23T02:29:20.514Z,8.00
2023-02-23T02:32:12.238Z,8.00
2023-02-23T02:34:42.474Z,8.00
2023-02-23T02:37:33.071Z,8.00
2023-02-23T02:40:16.812Z,8.00
2023-02-23T02:42:48.770Z,8.00
2023-02-23T02:45:47.902Z,7.90
2023-02-23T02:48:30.969Z,7.90
2023-02-23T02:51:01.036Z,7.90
2023-02-23T02:53:40.891Z,7.90
2023-02-23T02:56:08.671Z,7.90
2023-02-23T02:58:36.751Z,7.90
2023-02-23T03:01:30.296Z,7.90
2023-02-23T03:04:17.316Z,7.90
2023-02-23T03:07:06.133Z,7.90
2023-02-23T03:10:13.846Z,7.90
2023-02-23T03:13:13.387Z,7.90
2023-02-23T03:16:20.408Z,7.90
2023-02-23T03:19:17.646Z,7.90
2023-02-23T03:22:16.117Z,7.90
2023-02-23T03:25:11.204Z,7.90
2023-02-23T03:28:21.537Z,7.90
2023-02-23T03:31:18.379Z,7.90
2023-02-23T03:34:11.378Z,7.90
2023-02-23T03:37:01.800Z,7.90
2023-02-23T03:40:10.085Z,7.90
2023-02-23T03:42:57.847Z,7.90
2023-02-23T03:45:44.784Z,7.90
2023-02-23T03:48:31.583Z,7.90
2023-02-23T03:51:24.059Z,7.90
2023-02-23T03:54:23.298Z,7.90
2023-02-23T03:57:12.427Z,7.90
2023-02-23T04:00:04.941Z,7.80
2023-02-23T04:02:54.440Z,7.90
2023-02-23T04:05:42.359Z,7.90
2023-02-23T04:08:32.205Z,7.80
2023-02-23T04:11:27.612Z,7.90
2023-02-23T04:14:00.867Z,7.80
2023-02-23T04:16:29.964Z,7.80
2023-02-23T04:18:56.718Z,7.80
2023-02-23T04:21:23.291Z,7.80
2023-02-23T04:23:49.884Z,7.80
2023-02-23T04:26:16.460Z,7.80
2023-02-23T04:28:43.017Z,7.80
2023-02-23T04:31:09.615Z,7.80
2023-02-23T04:33:36.251Z,7.70
2023-02-23T04:36:02.889Z,7.70
2023-02-23T04:38:29.466Z,7.70
2023-02-23T04:40:56.282Z,7.70
2023-02-23T04:43:22.888Z,7.70
2023-02-23T04:45:49.570Z,7.70
2023-02-23T04:48:16.174Z,7.70
2023-02-23T04:50:42.747Z,7.70
2023-02-23T04:53:09.344Z,7.70
2023-02-23T04:55:35.908Z,7.70
2023-02-23T04:58:02.758Z,7.70
2023-02-23T05:00:29.601Z,7.70
2023-02-23T05:02:57.627Z,7.70
2023-02-23T05:05:24.355Z,7.70
2023-02-23T05:07:51.150Z,7.70
2023-02-23T05:10:17.812Z,7.70
2023-02-23T05:12:44.377Z,7.60
2023-02-23T05:15:11.213Z,7.60
2023-02-23T05:17:41.161Z,7.60
2023-02-23T05:20:09.379Z,7.60
2023-02-23T05:22:35.988Z,7.60
2023-02-23T05:25:04.174Z,7.60
2023-02-23T05:27:32.402Z,7.60
2023-02-23T05:29:58.960Z,7.60
2023-02-23T05:32:25.546Z,7.60
2023-02-23T05:34:52.236Z,7.60
2023-02-23T05:37:19.823Z,7.50
2023-02-23T05:39:46.996Z,7.60
2023-02-23T05:42:13.608Z,7.60
2023-02-23T05:44:40.166Z,7.60
2023-02-23T05:47:06.710Z,7.50
2023-02-23T05:49:33.432Z,7.50
2023-02-23T05:52:00.051Z,7.50
2023-02-23T05:54:27.329Z,7.60
2023-02-23T05:56:53.991Z,7.60
2023-02-23T05:59:20.559Z,7.60
2023-02-23T06:01:47.196Z,7.60
2023-02-23T06:04:14.109Z,7.60
2023-02-23T06:06:40.809Z,7.60
2023-02-23T06:09:07.384Z,7.60
2023-02-23T06:11:34.179Z,7.60
2023-02-23T06:14:01.015Z,7.60
2023-02-23T06:16:27.807Z,7.60
2023-02-23T06:18:54.793Z,7.60
2023-02-23T06:21:21.650Z,7.60
2023-02-23T06:23:48.200Z,7.60
2023-02-23T06:26:14.844Z,7.60
2023-02-23T06:28:41.410Z,7.60
2023-02-23T06:31:08.065Z,7.60
2023-02-23T06:33:34.940Z,7.60
2023-02-23T06:36:01.483Z,7.60
2023-02-23T06:38:28.040Z,7.60
2023-02-23T06:40:54.596Z,7.60
2023-02-23T06:43:23.223Z,7.60
2023-02-23T06:45:50.322Z,7.60
2023-02-23T06:48:17.509Z,7.70
2023-02-23T06:50:44.068Z,7.70
2023-02-23T06:53:10.731Z,7.70
2023-02-23T06:55:37.319Z,7.70
2023-02-23T06:58:04.922Z,7.70
2023-02-23T07:00:31.505Z,7.70
2023-02-23T07:02:59.675Z,7.70
2023-02-23T07:05:26.552Z,7.70
2023-02-23T07:07:53.158Z,7.70
2023-02-23T07:10:19.738Z,7.70
2023-02-23T07:12:46.745Z,7.70
2023-02-23T07:15:14.382Z,7.70
2023-02-23T07:17:40.925Z,7.70
2023-02-23T07:20:07.850Z,7.70
2023-02-23T07:22:34.502Z,7.70
2023-02-23T07:25:01.143Z,7.70
2023-02-23T07:27:28.115Z,7.70
2023-02-23T07:29:54.738Z,7.70
2023-02-23T07:32:21.527Z,7.70
2023-02-23T07:34:48.202Z,7.80
2023-02-23T07:37:15.451Z,7.80
2023-02-23T07:39:42.054Z,7.80
2023-02-23T07:42:08.625Z,7.80
2023-02-23T07:44:35.421Z,7.80
2023-02-23T07:47:02.028Z,7.80
2023-02-23T07:49:30.416Z,7.80
2023-02-23T07:51:56.993Z,7.80
2023-02-23T07:54:23.771Z,7.80
2023-02-23T07:56:50.318Z,7.80
2023-02-23T07:59:17.485Z,7.80
2023-02-23T08:01:44.669Z,7.80
2023-02-23T08:04:11.451Z,7.80
2023-02-23T08:06:38.098Z,7.90
2023-02-23T08:09:05.630Z,7.90
2023-02-23T08:11:32.354Z,7.90
2023-02-23T08:13:59.974Z,8.00
2023-02-23T08:16:28.279Z,8.00
2023-02-23T08:18:58.452Z,8.10
2023-02-23T08:21:27.504Z,8.10
2023-02-23T08:23:54.049Z,8.10
2023-02-23T08:26:20.793Z,8.00
2023-02-23T08:28:47.578Z,8.10
2023-02-23T08:31:21.447Z,8.00
2023-02-23T08:33:48.685Z,8.10
2023-02-23T08:36:15.270Z,8.10
2023-02-23T08:38:41.867Z,8.10
2023-02-23T08:41:08.483Z,8.10
2023-02-23T08:43:35.050Z,8.10
2023-02-23T08:46:01.675Z,8.10
2023-02-23T08:48:28.256Z,8.10
2023-02-23T08:50:58.726Z,8.10
2023-02-23T08:53:27.091Z,8.30
2023-02-23T08:56:01.941Z,8.30
2023-02-23T08:58:30.576Z,8.30
2023-02-23T09:00:58.479Z,8.30
2023-02-23T09:03:26.245Z,8.30
2023-02-23T09:05:53.107Z,8.30
2023-02-23T09:08:20.239Z,8.30
2023-02-23T09:10:46.994Z,8.30
2023-02-23T09:13:14.058Z,8.30
2023-02-23T09:15:41.569Z,8.40
2023-02-23T09:18:13.838Z,8.40
2023-02-23T09:20:45.007Z,8.40
2023-02-23T09:23:12.688Z,8.40
2023-02-23T09:25:43.915Z,8.40
2023-02-23T09:28:15.948Z,8.40
2023-02-23T09:30:44.272Z,8.40
2023-02-23T09:33:11.706Z,8.40
2023-02-23T09:35:38.834Z,8.30
2023-02-23T09:38:07.025Z,8.30
2023-02-23T09:40:46.131Z,8.20
2023-02-23T09:43:19.655Z,8.20
2023-02-23T09:46:19.044Z,8.20
2023-02-23T09:48:45.859Z,8.20
2023-02-23T09:51:18.715Z,8.20
2023-02-23T09:53:53.615Z,8.30
2023-02-23T09:56:46.634Z,8.40
2023-02-23T09:59:16.144Z,8.60
2023-02-23T10:01:49.408Z,8.80
2023-02-23T10:04:21.928Z,8.90
2023-02-23T10:07:21.964Z,8.90
2023-02-23T10:10:06.819Z,8.90
2023-02-23T10:12:42.263Z,8.90
2023-02-23T10:15:18.574Z,8.90
2023-02-23T10:17:57.715Z,9.00
2023-02-23T10:20:27.108Z,9.00
2023-02-23T10:22:58.067Z,9.00
2023-02-23T10:25:28.622Z,9.00
2023-02-23T10:27:58.282Z,9.00
2023-02-23T10:30:31.660Z,9.00
2023-02-23T10:33:34.911Z,8.90
2023-02-23T10:36:19.187Z,8.90
2023-02-23T10:38:46.925Z,8.80
2023-02-23T10:41:14.915Z,8.80
2023-02-23T10:43:41.881Z,8.80
2023-02-23T10:46:21.994Z,8.80
2023-02-23T10:48:50.763Z,8.70
2023-02-23T10:51:26.332Z,8.70
2023-02-23T10:53:52.986Z,8.70
2023-02-23T10:56:21.543Z,8.70
2023-02-23T10:58:51.477Z,8.60
2023-02-23T11:01:41.859Z,8.60
2023-02-23T11:04:22.107Z,8.60
2023-02-23T11:06:50.564Z,8.50
2023-02-23T11:09:44.486Z,8.60
2023-02-23T11:12:26.290Z,8.60
2023-02-23T11:14:54.852Z,8.70
2023-02-23T11:17:37.079Z,8.80
2023-02-23T11:20:25.268Z,8.90
2023-02-23T11:22:52.283Z,9.00
2023-02-23T11:25:30.198Z,9.10
2023-02-23T11:27:58.716Z,9.10
2023-02-23T11:30:31.910Z,9.10
2023-02-23T11:33:09.432Z,9.00
2023-02-23T11:35:36.922Z,8.90
2023-02-23T11:38:21.839Z,8.90
2023-02-23T11:41:17.195Z,8.80
2023-02-23T11:44:02.834Z,8.70
2023-02-23T11:46:35.293Z,8.60
2023-02-23T11:49:04.819Z,8.50
2023-02-23T11:51:35.674Z,8.50
2023-02-23T11:54:05.728Z,8.40
2023-02-23T11:56:35.317Z,8.40
2023-02-23T11:59:15.875Z,8.30
2023-02-23T12:01:44.473Z,8.30
2023-02-23T12:04:30.307Z,8.30
2023-02-23T12:07:34.803Z,8.30
2023-02-23T12:10:26.508Z,8.30
2023-02-23T12:13:14.842Z,8.40
2023-02-23T12:15:55.715Z,8.40
2023-02-23T12:18:39.392Z,8.40
2023-02-23T12:21:36.285Z,8.50
2023-02-23T12:24:21.026Z,8.60
2023-02-23T12:27:26.825Z,8.70
2023-02-23T12:30:12.476Z,8.70
2023-02-23T12:33:01.527Z,8.70
2023-02-23T12:35:31.273Z,8.80
2023-02-23T12:38:11.882Z,8.80
2023-02-23T12:40:42.076Z,8.90
2023-02-23T12:43:21.569Z,8.90
2023-02-23T12:46:12.487Z,9.00
2023-02-23T12:48:50.236Z,9.10
2023-02-23T12:51:35.419Z,9.10
2023-02-23T12:54:03.109Z,9.10
2023-02-23T12:56:35.645Z,9.20
2023-02-23T12:59:14.366Z,9.20
2023-02-23T13:01:52.033Z,9.20
2023-02-23T13:04:39.783Z,9.30
2023-02-23T13:07:42.414Z,9.30
2023-02-23T13:10:51.764Z,9.40
2023-02-23T13:13:46.031Z,9.60
2023-02-23T13:16:29.889Z,9.80
2023-02-23T13:19:38.484Z,9.90
2023-02-23T13:22:22.790Z,10.00
2023-02-23T13:24:52.285Z,10.00
2023-02-23T13:27:23.710Z,10.10
2023-02-23T13:29:55.465Z,10.10
2023-02-23T13:32:26.300Z,10.10
2023-02-23T13:34:57.855Z,10.10
2023-02-23T13:37:32.119Z,10.10
2023-02-23T13:40:19.508Z,10.00
2023-02-23T13:43:17.957Z,10.00
2023-02-23T13:45:54.734Z,10.00
2023-02-23T13:48:39.793Z,10.00
2023-02-23T13:51:35.039Z,10.00
2023-02-23T13:54:06.497Z,10.10
2023-02-23T13:56:42.934Z,10.00
2023-02-23T13:59:18.095Z,10.10
2023-02-23T14:01:47.771Z,10.10
2023-02-23T14:04:29.172Z,10.10
2023-02-23T14:07:16.447Z,10.10
2023-02-23T14:09:53.513Z,10.10
2023-02-23T14:12:41.152Z,10.20
2023-02-23T14:15:28.704Z,10.20
2023-02-23T14:17:59.845Z,10.20
2023-02-23T14:20:54.960Z,10.10
2023-02-23T14:23:21.531Z,10.10
2023-02-23T14:26:23.464Z,10.10
2023-02-23T14:29:11.483Z,10.10
2023-02-23T14:31:38.364Z,10.30
2023-02-23T14:34:12.819Z,10.20
2023-02-23T14:36:44.431Z,10.20
2023-02-23T14:39:27.382Z,10.00
2023-02-23T14:41:59.962Z,9.80
2023-02-23T14:44:31.589Z,9.70
2023-02-23T14:47:16.632Z,9.60
2023-02-23T14:49:57.032Z,9.50
2023-02-23T14:52:35.832Z,9.40
2023-02-23T14:55:17.060Z,9.40
2023-02-23T14:57:44.038Z,9.30
2023-02-23T15:00:25.836Z,9.20
2023-02-23T15:03:13.560Z,9.20
2023-02-23T15:05:44.300Z,9.10
2023-02-23T15:08:16.020Z,9.00
2023-02-23T15:10:46.144Z,8.90
2023-02-23T15:13:31.174Z,8.90
2023-02-23T15:16:01.177Z,8.70
2023-02-23T15:18:35.974Z,8.60
2023-02-23T15:21:17.526Z,8.60
2023-02-23T15:23:46.051Z,8.50
2023-02-23T15:26:27.370Z,8.30
2023-02-23T15:28:54.008Z,8.10
2023-02-23T15:31:21.044Z,7.90
2023-02-23T15:33:50.620Z,7.80
2023-02-23T15:36:29.899Z,7.70
2023-02-23T15:38:59.108Z,7.60
2023-02-23T15:41:35.952Z,7.50
2023-02-23T15:44:19.883Z,7.30
2023-02-23T15:46:58.805Z,7.20
2023-02-23T15:49:32.426Z,7.10
2023-02-23T15:52:22.385Z,7.00
2023-02-23T15:55:02.173Z,6.90
2023-02-23T15:57:58.925Z,6.90
2023-02-23T16:01:05.940Z,6.80
2023-02-23T16:03:35.738Z,6.90
2023-02-23T16:06:06.605Z,6.80
2023-02-23T16:08:35.893Z,6.80
2023-02-23T16:11:13.528Z,6.80
2023-02-23T16:13:53.658Z,6.70
2023-02-23T16:16:25.329Z,6.70
2023-02-23T16:18:55.251Z,6.80
2023-02-23T16:21:24.859Z,6.70
2023-02-23T16:23:54.698Z,6.70
2023-02-23T16:26:55.726Z,6.70
2023-02-23T16:29:41.503Z,6.70
2023-02-23T16:32:19.848Z,6.70
2023-02-23T16:35:14.785Z,6.70
2023-02-23T16:38:02.698Z,6.60
2023-02-23T16:40:29.394Z,6.60
2023-02-23T16:42:59.305Z,6.60
2023-02-23T16:45:27.016Z,6.60
2023-02-23T16:47:53.600Z,6.60
2023-02-23T16:50:24.351Z,6.50
2023-02-23T16:52:54.931Z,6.50
2023-02-23T16:55:27.860Z,6.40
2023-02-23T16:57:59.668Z,6.30
2023-02-23T17:00:32.179Z,6.10
2023-02-23T17:03:00.485Z,5.90
2023-02-23T17:05:28.427Z,5.80
2023-02-23T17:07:56.627Z,5.70
2023-02-23T17:10:29.585Z,5.70
2023-02-23T17:13:05.066Z,5.70
2023-02-23T17:15:36.086Z,5.70
2023-02-23T17:18:03.646Z,5.80
2023-02-23T17:20:30.547Z,5.80
2023-02-23T17:22:58.915Z,5.80
2023-02-23T17:25:26.503Z,5.80
2023-02-23T17:27:54.296Z,5.80
2023-02-23T17:30:21.426Z,5.90
2023-02-23T17:32:48.972Z,5.90
2023-02-23T17:35:16.346Z,5.90
2023-02-23T17:37:43.143Z,5.80
2023-02-23T17:40:14.638Z,5.80
2023-02-23T17:42:41.546Z,5.70
2023-02-23T17:45:09.065Z,5.70
2023-02-23T17:47:39.368Z,5.70
2023-02-23T17:50:06.396Z,5.70
2023-02-23T17:52:32.979Z,5.70
2023-02-23T17:55:00.486Z,5.60
2023-02-23T17:57:29.234Z,5.60
2023-02-23T17:59:56.623Z,5.50
2023-02-23T18:02:23.574Z,5.50
2023-02-23T18:04:52.238Z,5.50
2023-02-23T18:07:20.350Z,5.40
2023-02-23T18:09:49.966Z,5.40
2023-02-23T18:12:18.085Z,5.30
2023-02-23T18:14:45.440Z,5.20
2023-02-23T18:17:13.506Z,5.20
2023-02-23T18:19:40.122Z,5.10
2023-02-23T18:22:06.884Z,5.10
2023-02-23T18:24:33.749Z,5.10
2023-02-23T18:27:03.145Z,5.10
2023-02-23T18:29:31.874Z,5.10
2023-02-23T18:32:00.338Z,5.10
2023-02-23T18:34:28.717Z,5.10
2023-02-23T18:36:57.232Z,5.00
2023-02-23T18:39:24.180Z,5.00
2023-02-23T18:41:50.809Z,5.00
2023-02-23T18:44:18.229Z,5.10
2023-02-23T18:46:46.465Z,5.00
2023-02-23T18:49:18.669Z,4.90
2023-02-23T18:51:45.423Z,4.80
2023-02-23T18:54:16.695Z,4.70
2023-02-23T18:56:47.398Z,4.50
2023-02-23T18:59:14.768Z,4.40
2023-02-23T19:01:45.130Z,4.20
2023-02-23T19:04:12.452Z,4.10
2023-02-23T19:06:43.026Z,4.00
2023-02-23T19:09:12.397Z,3.90
2023-02-23T19:11:40.041Z,3.80
2023-02-23T19:14:10.295Z,3.70
2023-02-23T19:16:38.041Z,3.60
2023-02-23T19:19:07.084Z,3.60
2023-02-23T19:21:34.108Z,3.50
2023-02-23T19:24:02.307Z,3.40
2023-02-23T19:26:30.001Z,3.30
2023-02-23T19:28:57.388Z,3.30
2023-02-23T19:31:25.918Z,3.20
2023-02-23T19:33:55.689Z,3.10
2023-02-23T19:36:29.304Z,3.10
2023-02-23T19:39:05.819Z,3.00
2023-02-23T19:41:34.042Z,3.00
2023-02-23T19:44:01.140Z,3.00
2023-02-23T19:46:31.787Z,2.90
2023-02-23T19:48:58.399Z,2.80
2023-02-23T19:51:25.156Z,2.80
2023-02-23T19:53:55.162Z,2.80
2023-02-23T19:56:24.739Z,2.80
2023-02-23T19:58:52.503Z,2.80
2023-02-23T20:01:21.205Z,2.80
2023-02-23T20:03:55.042Z,2.70
2023-02-23T20:06:24.107Z,2.70
2023-02-23T20:08:52.266Z,2.70
2023-02-23T20:11:20.049Z,2.70
2023-02-23T20:13:46.890Z,2.70
2023-02-23T20:16:14.804Z,2.70
2023-02-23T20:18:42.430Z,2.80
2023-02-23T20:21:10.807Z,2.90
2023-02-23T20:23:37.444Z,2.90
2023-02-23T20:26:06.447Z,3.00
2023-02-23T20:28:33.323Z,3.00
2023-02-23T20:31:01.644Z,3.10
2023-02-23T20:33:31.858Z,3.20
2023-02-23T20:35:58.452Z,3.20
2023-02-23T20:38:24.992Z,3.30
2023-02-23T20:40:51.774Z,3.30
2023-02-23T20:43:18.412Z,3.40
2023-02-23T20:45:45.047Z,3.50
2023-02-23T20:48:11.679Z,3.50
2023-02-23T20:50:38.462Z,3.50
2023-02-23T20:53:05.747Z,3.60
2023-02-23T20:55:32.625Z,3.60
2023-02-23T20:57:59.592Z,3.70
2023-02-23T21:00:31.673Z,3.80
2023-02-23T21:03:02.815Z,3.80
2023-02-23T21:05:32.824Z,3.80
2023-02-23T21:08:02.464Z,3.80
2023-02-23T21:10:30.978Z,3.70
2023-02-23T21:12:58.098Z,3.60
2023-02-23T21:15:25.412Z,3.40
2023-02-23T21:17:52.538Z,3.20
2023-02-23T21:20:20.938Z,3.10
2023-02-23T21:22:49.198Z,3.00
2023-02-23T21:25:19.404Z,3.00
2023-02-23T21:27:46.954Z,3.00
2023-02-23T21:30:16.159Z,3.10
2023-02-23T21:32:43.546Z,3.20
2023-02-23T21:35:11.397Z,3.20
2023-02-23T21:37:39.113Z,3.30
2023-02-23T21:40:13.025Z,3.30
2023-02-23T21:42:41.225Z,3.40
2023-02-23T21:45:10.157Z,3.40
2023-02-23T21:47:38.602Z,3.40
2023-02-23T21:50:06.575Z,3.50
2023-02-23T21:52:33.497Z,3.50
2023-02-23T21:55:03.903Z,3.50
2023-02-23T21:57:33.433Z,3.50
2023-02-23T21:59:59.981Z,3.60
2023-02-23T22:02:31.907Z,3.60
2023-02-23T22:04:58.555Z,3.60
2023-02-23T22:07:29.092Z,3.70
2023-02-23T22:09:55.763Z,3.70
2023-02-23T22:12:22.376Z,3.70
2023-02-23T22:14:48.928Z,3.70
2023-02-23T22:17:18.789Z,3.70
2023-02-23T22:19:45.708Z,3.70
2023-02-23T22:22:12.850Z,3.80
2023-02-23T22:24:39.386Z,3.80
2023-02-23T22:27:07.619Z,3.80
2023-02-23T22:29:34.178Z,3.80
2023-02-23T22:32:01.205Z,3.90
2023-02-23T22:34:28.306Z,3.90
2023-02-23T22:36:54.849Z,3.90
2023-02-23T22:39:21.445Z,3.90
2023-02-23T22:41:48.665Z,3.90
2023-02-23T22:44:21.170Z,3.90
2023-02-23T22:46:48.507Z,3.90
2023-02-23T22:49:15.786Z,3.90
2023-02-23T22:51:43.647Z,3.90
2023-02-23T22:54:11.488Z,3.90
2023-02-23T22:56:38.148Z,3.80
2023-02-23T22:59:06.362Z,3.90
2023-02-23T23:01:33.956Z,3.90
2023-02-23T23:04:00.548Z,3.90
2023-02-23T23:06:27.442Z,3.90
2023-02-23T23:08:56.255Z,3.90
2023-02-23T23:11:26.556Z,3.90
2023-02-23T23:14:02.714Z,4.00
2023-02-23T23:16:32.569Z,4.00
2023-02-23T23:19:11.761Z,4.00
2023-02-23T23:21:40.992Z,4.00
2023-02-23T23:24:09.451Z,4.00
2023-02-23T23:26:39.621Z,4.00
2023-02-23T23:29:09.970Z,4.00
2023-02-23T23:31:38.522Z,4.10
2023-02-23T23:34:09.426Z,4.10
2023-02-23T23:36:43.212Z,4.20
2023-02-23T23:39:15.937Z,4.20
2023-02-23T23:41:44.820Z,4.20
2023-02-23T23:44:13.007Z,4.20
2023-02-23T23:46:44.629Z,4.20
2023-02-23T23:49:20.691Z,4.20
2023-02-23T23:51:52.384Z,4.20
2023-02-23T23:54:26.094Z,4.20
2023-02-23T23:56:52.725Z,4.20
2023-02-23T23:59:23.284Z,4.20
